sensor_id;sensor_type;location;lat;lon;timestamp;P1;durP1;ratioP1;P2;durP2;ratioP2
62588;SDS011;58504;48.770;9.148;2023-05-29T00:02:07;2.17;;;1.92;;
62588;SDS011;58504;48.770;9.148;2023-05-29T00:04:35;3.25;;;2.20;;
62588;SDS011;58504;48.770;9.148;2023-05-29T00:07:02;2.53;;;2.30;;
62588;SDS011;58504;48.770;9.148;2023-05-29T00:09:29;2.55;;;1.98;;
62588;SDS011;58504;48.770;9.148;2023-05-29T00:11:56;2.35;;;2.08;;
62588;SDS011;58504;48.770;9.148;2023-05-29T00:14:23;2.15;;;1.90;;
62588;SDS011;58504;48.770;9.148;2023-05-29T00:16:51;3.42;;;2.60;;
62588;SDS011;58504;48.770;9.148;2023-05-29T00:19:18;2.40;;;2.00;;
62588;SDS011;58504;48.770;9.148;2023-05-29T00:21:46;2.28;;;2.08;;
62588;SDS011;58504;48.770;9.148;2023-05-29T00:24:13;2.60;;;2.28;;
62588;SDS011;58504;48.770;9.148;2023-05-29T00:26:40;2.38;;;2.17;;
62588;SDS011;58504;48.770;9.148;2023-05-29T00:29:07;2.03;;;1.83;;
62588;SDS011;58504;48.770;9.148;2023-05-29T00:31:33;3.10;;;2.33;;
62588;SDS011;58504;48.770;9.148;2023-05-29T00:34:01;2.45;;;2.20;;
62588;SDS011;58504;48.770;9.148;2023-05-29T00:36:28;2.30;;;1.95;;
62588;SDS011;58504;48.770;9.148;2023-05-29T00:38:57;3.05;;;2.30;;
62588;SDS011;58504;48.770;9.148;2023-05-29T00:41:24;2.33;;;2.15;;
62588;SDS011;58504;48.770;9.148;2023-05-29T00:43:51;2.22;;;1.85;;
62588;SDS011;58504;48.770;9.148;2023-05-29T00:46:18;2.63;;;2.05;;
62588;SDS011;58504;48.770;9.148;2023-05-29T00:48:45;3.10;;;2.38;;
62588;SDS011;58504;48.770;9.148;2023-05-29T00:51:14;1.75;;;1.58;;
62588;SDS011;58504;48.770;9.148;2023-05-29T00:53:42;2.72;;;1.88;;
62588;SDS011;58504;48.770;9.148;2023-05-29T00:56:11;2.72;;;2.40;;
62588;SDS011;58504;48.770;9.148;2023-05-29T00:58:39;2.30;;;1.88;;
62588;SDS011;58504;48.770;9.148;2023-05-29T01:01:07;3.30;;;2.40;;
62588;SDS011;58504;48.770;9.148;2023-05-29T01:03:35;3.47;;;2.58;;
62588;SDS011;58504;48.770;9.148;2023-05-29T01:06:02;2.67;;;2.00;;
62588;SDS011;58504;48.770;9.148;2023-05-29T01:08:29;2.83;;;2.10;;
62588;SDS011;58504;48.770;9.148;2023-05-29T01:10:56;2.17;;;2.08;;
62588;SDS011;58504;48.770;9.148;2023-05-29T01:13:32;1.90;;;1.65;;
62588;SDS011;58504;48.770;9.148;2023-05-29T01:16:03;2.20;;;2.10;;
62588;SDS011;58504;48.770;9.148;2023-05-29T01:18:39;2.45;;;2.25;;
62588;SDS011;58504;48.770;9.148;2023-05-29T01:21:12;2.47;;;2.08;;
62588;SDS011;58504;48.770;9.148;2023-05-29T01:26:50;2.33;;;2.13;;
62588;SDS011;58504;48.770;9.148;2023-05-29T01:29:21;2.35;;;2.10;;
62588;SDS011;58504;48.770;9.148;2023-05-29T01:31:50;2.10;;;1.90;;
62588;SDS011;58504;48.770;9.148;2023-05-29T01:34:18;2.70;;;2.00;;
62588;SDS011;58504;48.770;9.148;2023-05-29T01:36:45;2.00;;;1.83;;
62588;SDS011;58504;48.770;9.148;2023-05-29T01:39:12;1.77;;;1.67;;
62588;SDS011;58504;48.770;9.148;2023-05-29T01:41:39;1.90;;;1.80;;
62588;SDS011;58504;48.770;9.148;2023-05-29T01:44:09;4.10;;;2.08;;
62588;SDS011;58504;48.770;9.148;2023-05-29T01:46:37;2.05;;;1.90;;
62588;SDS011;58504;48.770;9.148;2023-05-29T01:49:05;1.98;;;1.83;;
62588;SDS011;58504;48.770;9.148;2023-05-29T01:51:32;1.67;;;1.58;;
62588;SDS011;58504;48.770;9.148;2023-05-29T01:54:00;2.28;;;2.08;;
62588;SDS011;58504;48.770;9.148;2023-05-29T01:56:27;2.50;;;2.30;;
62588;SDS011;58504;48.770;9.148;2023-05-29T01:58:55;1.60;;;1.50;;
62588;SDS011;58504;48.770;9.148;2023-05-29T02:01:24;2.25;;;1.95;;
62588;SDS011;58504;48.770;9.148;2023-05-29T02:03:51;4.43;;;2.22;;
62588;SDS011;58504;48.770;9.148;2023-05-29T02:06:18;2.60;;;2.40;;
62588;SDS011;58504;48.770;9.148;2023-05-29T02:08:45;2.45;;;2.13;;
62588;SDS011;58504;48.770;9.148;2023-05-29T02:11:12;1.85;;;1.75;;
62588;SDS011;58504;48.770;9.148;2023-05-29T02:13:39;2.10;;;2.00;;
62588;SDS011;58504;48.770;9.148;2023-05-29T02:16:07;3.72;;;1.75;;
62588;SDS011;58504;48.770;9.148;2023-05-29T02:18:35;1.70;;;1.60;;
62588;SDS011;58504;48.770;9.148;2023-05-29T02:21:02;2.13;;;1.92;;
62588;SDS011;58504;48.770;9.148;2023-05-29T02:23:29;2.00;;;1.90;;
62588;SDS011;58504;48.770;9.148;2023-05-29T02:25:55;2.50;;;2.08;;
62588;SDS011;58504;48.770;9.148;2023-05-29T02:28:22;2.13;;;1.90;;
62588;SDS011;58504;48.770;9.148;2023-05-29T02:30:49;2.45;;;2.00;;
62588;SDS011;58504;48.770;9.148;2023-05-29T02:33:16;1.90;;;1.80;;
62588;SDS011;58504;48.770;9.148;2023-05-29T02:35:44;1.92;;;1.83;;
62588;SDS011;58504;48.770;9.148;2023-05-29T02:38:11;2.38;;;2.17;;
62588;SDS011;58504;48.770;9.148;2023-05-29T02:40:38;2.45;;;2.20;;
62588;SDS011;58504;48.770;9.148;2023-05-29T02:43:05;3.38;;;1.85;;
62588;SDS011;58504;48.770;9.148;2023-05-29T02:45:32;2.20;;;1.65;;
62588;SDS011;58504;48.770;9.148;2023-05-29T02:47:59;2.67;;;1.55;;
62588;SDS011;58504;48.770;9.148;2023-05-29T02:50:26;2.00;;;1.90;;
62588;SDS011;58504;48.770;9.148;2023-05-29T02:52:54;1.80;;;1.70;;
62588;SDS011;58504;48.770;9.148;2023-05-29T02:55:21;2.10;;;2.00;;
62588;SDS011;58504;48.770;9.148;2023-05-29T02:57:48;4.60;;;1.70;;
62588;SDS011;58504;48.770;9.148;2023-05-29T03:00:18;2.03;;;1.92;;
62588;SDS011;58504;48.770;9.148;2023-05-29T03:02:45;1.58;;;1.48;;
62588;SDS011;58504;48.770;9.148;2023-05-29T03:05:12;2.65;;;2.00;;
62588;SDS011;58504;48.770;9.148;2023-05-29T03:07:39;2.20;;;2.00;;
62588;SDS011;58504;48.770;9.148;2023-05-29T03:10:08;1.73;;;1.63;;
62588;SDS011;58504;48.770;9.148;2023-05-29T03:12:35;2.15;;;1.95;;
62588;SDS011;58504;48.770;9.148;2023-05-29T03:15:03;1.55;;;1.45;;
62588;SDS011;58504;48.770;9.148;2023-05-29T03:17:30;2.42;;;1.98;;
62588;SDS011;58504;48.770;9.148;2023-05-29T03:19:57;1.80;;;1.70;;
62588;SDS011;58504;48.770;9.148;2023-05-29T03:22:23;2.00;;;1.90;;
62588;SDS011;58504;48.770;9.148;2023-05-29T03:24:50;1.65;;;1.52;;
62588;SDS011;58504;48.770;9.148;2023-05-29T03:27:18;1.85;;;1.75;;
62588;SDS011;58504;48.770;9.148;2023-05-29T03:29:45;2.13;;;1.95;;
62588;SDS011;58504;48.770;9.148;2023-05-29T03:32:12;1.98;;;1.85;;
62588;SDS011;58504;48.770;9.148;2023-05-29T03:34:39;1.58;;;1.48;;
62588;SDS011;58504;48.770;9.148;2023-05-29T03:37:06;1.85;;;1.75;;
62588;SDS011;58504;48.770;9.148;2023-05-29T03:39:32;2.55;;;1.90;;
62588;SDS011;58504;48.770;9.148;2023-05-29T03:41:59;2.65;;;1.83;;
62588;SDS011;58504;48.770;9.148;2023-05-29T03:44:29;2.80;;;1.75;;
62588;SDS011;58504;48.770;9.148;2023-05-29T03:46:56;2.25;;;2.05;;
62588;SDS011;58504;48.770;9.148;2023-05-29T03:49:22;1.75;;;1.65;;
62588;SDS011;58504;48.770;9.148;2023-05-29T03:51:49;1.80;;;1.70;;
62588;SDS011;58504;48.770;9.148;2023-05-29T03:54:16;1.70;;;1.60;;
62588;SDS011;58504;48.770;9.148;2023-05-29T03:56:43;1.65;;;1.55;;
62588;SDS011;58504;48.770;9.148;2023-05-29T03:59:10;1.80;;;1.70;;
62588;SDS011;58504;48.770;9.148;2023-05-29T04:01:38;2.03;;;1.92;;
62588;SDS011;58504;48.770;9.148;2023-05-29T04:04:05;1.67;;;1.55;;
62588;SDS011;58504;48.770;9.148;2023-05-29T04:06:31;2.05;;;1.95;;
62588;SDS011;58504;48.770;9.148;2023-05-29T04:08:58;1.60;;;1.50;;
62588;SDS011;58504;48.770;9.148;2023-05-29T04:11:25;1.98;;;1.70;;
62588;SDS011;58504;48.770;9.148;2023-05-29T04:13:52;1.65;;;1.55;;
62588;SDS011;58504;48.770;9.148;2023-05-29T04:16:18;1.80;;;1.70;;
62588;SDS011;58504;48.770;9.148;2023-05-29T04:18:47;2.10;;;2.00;;
62588;SDS011;58504;48.770;9.148;2023-05-29T04:21:13;1.75;;;1.65;;
62588;SDS011;58504;48.770;9.148;2023-05-29T04:23:40;1.90;;;1.77;;
62588;SDS011;58504;48.770;9.148;2023-05-29T04:26:07;1.88;;;1.77;;
62588;SDS011;58504;48.770;9.148;2023-05-29T04:28:35;1.73;;;1.63;;
62588;SDS011;58504;48.770;9.148;2023-05-29T04:31:02;1.58;;;1.48;;
62588;SDS011;58504;48.770;9.148;2023-05-29T04:33:30;3.58;;;1.75;;
62588;SDS011;58504;48.770;9.148;2023-05-29T04:35:59;1.65;;;1.52;;
62588;SDS011;58504;48.770;9.148;2023-05-29T04:38:28;2.03;;;1.92;;
62588;SDS011;58504;48.770;9.148;2023-05-29T04:40:56;1.95;;;1.63;;
62588;SDS011;58504;48.770;9.148;2023-05-29T04:43:23;1.80;;;1.70;;
62588;SDS011;58504;48.770;9.148;2023-05-29T04:45:51;1.50;;;1.40;;
62588;SDS011;58504;48.770;9.148;2023-05-29T04:48:18;1.83;;;1.73;;
62588;SDS011;58504;48.770;9.148;2023-05-29T04:50:44;1.98;;;1.80;;
62588;SDS011;58504;48.770;9.148;2023-05-29T04:53:14;2.30;;;2.10;;
62588;SDS011;58504;48.770;9.148;2023-05-29T04:55:41;2.30;;;2.10;;
62588;SDS011;58504;48.770;9.148;2023-05-29T04:58:08;1.80;;;1.65;;
62588;SDS011;58504;48.770;9.148;2023-05-29T05:00:37;2.00;;;1.90;;
62588;SDS011;58504;48.770;9.148;2023-05-29T05:03:04;2.47;;;2.20;;
62588;SDS011;58504;48.770;9.148;2023-05-29T05:05:30;2.55;;;1.95;;
62588;SDS011;58504;48.770;9.148;2023-05-29T05:07:58;3.10;;;1.77;;
62588;SDS011;58504;48.770;9.148;2023-05-29T05:10:26;4.00;;;1.92;;
62588;SDS011;58504;48.770;9.148;2023-05-29T05:12:53;3.13;;;2.50;;
62588;SDS011;58504;48.770;9.148;2023-05-29T05:15:19;2.65;;;2.05;;
62588;SDS011;58504;48.770;9.148;2023-05-29T05:17:46;2.28;;;2.17;;
62588;SDS011;58504;48.770;9.148;2023-05-29T05:20:13;4.60;;;2.75;;
62588;SDS011;58504;48.770;9.148;2023-05-29T05:22:40;2.95;;;2.53;;
62588;SDS011;58504;48.770;9.148;2023-05-29T05:25:07;2.42;;;2.28;;
62588;SDS011;58504;48.770;9.148;2023-05-29T05:27:35;4.20;;;2.30;;
62588;SDS011;58504;48.770;9.148;2023-05-29T05:30:02;2.20;;;2.10;;
62588;SDS011;58504;48.770;9.148;2023-05-29T05:32:30;2.40;;;2.20;;
62588;SDS011;58504;48.770;9.148;2023-05-29T05:34:57;4.80;;;2.70;;
62588;SDS011;58504;48.770;9.148;2023-05-29T05:37:24;4.35;;;2.58;;
62588;SDS011;58504;48.770;9.148;2023-05-29T05:39:50;3.83;;;2.55;;
62588;SDS011;58504;48.770;9.148;2023-05-29T05:42:18;2.45;;;2.25;;
62588;SDS011;58504;48.770;9.148;2023-05-29T05:44:46;2.90;;;2.38;;
62588;SDS011;58504;48.770;9.148;2023-05-29T05:47:13;2.60;;;2.40;;
62588;SDS011;58504;48.770;9.148;2023-05-29T05:49:40;2.65;;;2.45;;
62588;SDS011;58504;48.770;9.148;2023-05-29T05:52:08;3.45;;;2.60;;
62588;SDS011;58504;48.770;9.148;2023-05-29T05:54:35;4.15;;;2.58;;
62588;SDS011;58504;48.770;9.148;2023-05-29T05:57:02;2.80;;;2.22;;
62588;SDS011;58504;48.770;9.148;2023-05-29T05:59:28;3.35;;;2.67;;
62588;SDS011;58504;48.770;9.148;2023-05-29T06:01:57;3.65;;;2.55;;
62588;SDS011;58504;48.770;9.148;2023-05-29T06:04:23;2.92;;;2.10;;
62588;SDS011;58504;48.770;9.148;2023-05-29T06:06:51;2.72;;;2.53;;
62588;SDS011;58504;48.770;9.148;2023-05-29T06:09:17;2.58;;;2.25;;
62588;SDS011;58504;48.770;9.148;2023-05-29T06:11:44;2.42;;;2.17;;
62588;SDS011;58504;48.770;9.148;2023-05-29T06:14:11;2.85;;;2.58;;
62588;SDS011;58504;48.770;9.148;2023-05-29T06:16:38;3.53;;;2.42;;
62588;SDS011;58504;48.770;9.148;2023-05-29T06:19:06;2.38;;;2.08;;
62588;SDS011;58504;48.770;9.148;2023-05-29T06:21:33;2.80;;;2.40;;
62588;SDS011;58504;48.770;9.148;2023-05-29T06:24:00;3.97;;;2.50;;
62588;SDS011;58504;48.770;9.148;2023-05-29T06:26:26;2.70;;;2.30;;
62588;SDS011;58504;48.770;9.148;2023-05-29T06:28:53;3.63;;;2.58;;
62588;SDS011;58504;48.770;9.148;2023-05-29T06:31:20;4.07;;;2.50;;
62588;SDS011;58504;48.770;9.148;2023-05-29T06:33:47;2.60;;;2.40;;
62588;SDS011;58504;48.770;9.148;2023-05-29T06:36:15;3.28;;;2.40;;
62588;SDS011;58504;48.770;9.148;2023-05-29T06:38:45;2.42;;;2.22;;
62588;SDS011;58504;48.770;9.148;2023-05-29T06:41:12;3.13;;;2.80;;
62588;SDS011;58504;48.770;9.148;2023-05-29T06:43:39;2.38;;;2.17;;
62588;SDS011;58504;48.770;9.148;2023-05-29T06:46:06;2.80;;;2.60;;
62588;SDS011;58504;48.770;9.148;2023-05-29T06:48:32;2.50;;;2.10;;
62588;SDS011;58504;48.770;9.148;2023-05-29T06:50:59;2.35;;;2.15;;
62588;SDS011;58504;48.770;9.148;2023-05-29T06:53:28;2.22;;;2.03;;
62588;SDS011;58504;48.770;9.148;2023-05-29T06:55:54;3.22;;;2.38;;
62588;SDS011;58504;48.770;9.148;2023-05-29T06:58:21;3.38;;;2.10;;
62588;SDS011;58504;48.770;9.148;2023-05-29T07:00:48;3.13;;;2.55;;
62588;SDS011;58504;48.770;9.148;2023-05-29T07:03:15;4.35;;;2.13;;
62588;SDS011;58504;48.770;9.148;2023-05-29T07:05:41;3.63;;;2.30;;
62588;SDS011;58504;48.770;9.148;2023-05-29T07:08:08;3.03;;;2.42;;
62588;SDS011;58504;48.770;9.148;2023-05-29T07:10:36;2.30;;;2.20;;
62588;SDS011;58504;48.770;9.148;2023-05-29T07:13:03;5.55;;;2.30;;
62588;SDS011;58504;48.770;9.148;2023-05-29T07:15:31;2.92;;;2.65;;
62588;SDS011;58504;48.770;9.148;2023-05-29T07:17:58;2.85;;;2.28;;
62588;SDS011;58504;48.770;9.148;2023-05-29T07:20:24;3.10;;;2.00;;
62588;SDS011;58504;48.770;9.148;2023-05-29T07:22:51;2.95;;;2.08;;
62588;SDS011;58504;48.770;9.148;2023-05-29T07:25:18;2.10;;;1.90;;
62588;SDS011;58504;48.770;9.148;2023-05-29T07:27:46;4.05;;;2.25;;
62588;SDS011;58504;48.770;9.148;2023-05-29T07:30:13;7.38;;;2.50;;
62588;SDS011;58504;48.770;9.148;2023-05-29T07:32:40;2.67;;;1.98;;
62588;SDS011;58504;48.770;9.148;2023-05-29T07:35:07;6.43;;;2.47;;
62588;SDS011;58504;48.770;9.148;2023-05-29T07:37:34;4.13;;;2.45;;
62588;SDS011;58504;48.770;9.148;2023-05-29T07:40:01;6.82;;;2.28;;
62588;SDS011;58504;48.770;9.148;2023-05-29T07:42:29;3.95;;;2.53;;
62588;SDS011;58504;48.770;9.148;2023-05-29T07:44:57;3.22;;;2.35;;
62588;SDS011;58504;48.770;9.148;2023-05-29T07:47:24;3.08;;;2.53;;
62588;SDS011;58504;48.770;9.148;2023-05-29T07:49:51;2.97;;;2.60;;
62588;SDS011;58504;48.770;9.148;2023-05-29T07:52:18;3.38;;;2.10;;
62588;SDS011;58504;48.770;9.148;2023-05-29T07:54:44;5.35;;;2.58;;
62588;SDS011;58504;48.770;9.148;2023-05-29T07:57:11;2.38;;;2.22;;
62588;SDS011;58504;48.770;9.148;2023-05-29T07:59:40;2.60;;;2.38;;
62588;SDS011;58504;48.770;9.148;2023-05-29T08:02:08;3.75;;;2.45;;
62588;SDS011;58504;48.770;9.148;2023-05-29T08:04:35;4.72;;;2.50;;
62588;SDS011;58504;48.770;9.148;2023-05-29T08:07:02;3.03;;;2.67;;
62588;SDS011;58504;48.770;9.148;2023-05-29T08:09:29;4.72;;;2.50;;
62588;SDS011;58504;48.770;9.148;2023-05-29T08:11:56;3.72;;;2.28;;
62588;SDS011;58504;48.770;9.148;2023-05-29T08:14:24;1.83;;;1.70;;
62588;SDS011;58504;48.770;9.148;2023-05-29T08:16:51;3.00;;;1.98;;
62588;SDS011;58504;48.770;9.148;2023-05-29T08:19:19;3.20;;;2.20;;
62588;SDS011;58504;48.770;9.148;2023-05-29T08:21:46;2.13;;;1.90;;
62588;SDS011;58504;48.770;9.148;2023-05-29T08:24:13;2.42;;;1.95;;
62588;SDS011;58504;48.770;9.148;2023-05-29T08:26:39;3.65;;;2.42;;
62588;SDS011;58504;48.770;9.148;2023-05-29T08:29:08;2.53;;;2.33;;
62588;SDS011;58504;48.770;9.148;2023-05-29T08:31:36;3.70;;;2.58;;
62588;SDS011;58504;48.770;9.148;2023-05-29T08:34:02;2.88;;;2.63;;
62588;SDS011;58504;48.770;9.148;2023-05-29T08:36:30;2.92;;;2.30;;
62588;SDS011;58504;48.770;9.148;2023-05-29T08:38:57;3.08;;;2.65;;
62588;SDS011;58504;48.770;9.148;2023-05-29T08:41:26;2.58;;;2.28;;
62588;SDS011;58504;48.770;9.148;2023-05-29T08:43:58;5.00;;;2.63;;
62588;SDS011;58504;48.770;9.148;2023-05-29T08:46:29;2.42;;;2.22;;
62588;SDS011;58504;48.770;9.148;2023-05-29T08:48:57;8.75;;;2.42;;
62588;SDS011;58504;48.770;9.148;2023-05-29T08:51:27;2.55;;;2.30;;
62588;SDS011;58504;48.770;9.148;2023-05-29T08:53:59;5.38;;;2.40;;
62588;SDS011;58504;48.770;9.148;2023-05-29T08:56:26;5.68;;;2.58;;
62588;SDS011;58504;48.770;9.148;2023-05-29T08:58:53;2.67;;;2.17;;
62588;SDS011;58504;48.770;9.148;2023-05-29T09:01:20;2.50;;;2.30;;
62588;SDS011;58504;48.770;9.148;2023-05-29T09:03:48;7.03;;;2.30;;
62588;SDS011;58504;48.770;9.148;2023-05-29T09:06:15;2.95;;;2.20;;
62588;SDS011;58504;48.770;9.148;2023-05-29T09:08:43;2.97;;;2.40;;
62588;SDS011;58504;48.770;9.148;2023-05-29T09:11:13;2.35;;;2.20;;
62588;SDS011;58504;48.770;9.148;2023-05-29T09:13:39;3.03;;;2.42;;
62588;SDS011;58504;48.770;9.148;2023-05-29T09:16:06;6.25;;;2.72;;
62588;SDS011;58504;48.770;9.148;2023-05-29T09:18:33;4.38;;;2.30;;
62588;SDS011;58504;48.770;9.148;2023-05-29T09:21:00;2.58;;;2.30;;
62588;SDS011;58504;48.770;9.148;2023-05-29T09:23:34;3.22;;;2.42;;
62588;SDS011;58504;48.770;9.148;2023-05-29T09:26:02;5.43;;;2.97;;
62588;SDS011;58504;48.770;9.148;2023-05-29T09:28:31;2.33;;;2.17;;
62588;SDS011;58504;48.770;9.148;2023-05-29T09:30:58;3.33;;;3.03;;
62588;SDS011;58504;48.770;9.148;2023-05-29T09:33:24;5.50;;;2.50;;
62588;SDS011;58504;48.770;9.148;2023-05-29T09:35:51;2.55;;;2.30;;
62588;SDS011;58504;48.770;9.148;2023-05-29T09:38:19;3.50;;;2.33;;
62588;SDS011;58504;48.770;9.148;2023-05-29T09:40:46;3.15;;;2.85;;
62588;SDS011;58504;48.770;9.148;2023-05-29T09:43:13;2.78;;;2.50;;
62588;SDS011;58504;48.770;9.148;2023-05-29T09:45:43;3.45;;;2.50;;
62588;SDS011;58504;48.770;9.148;2023-05-29T09:48:12;2.95;;;2.65;;
62588;SDS011;58504;48.770;9.148;2023-05-29T09:50:40;3.08;;;2.70;;
62588;SDS011;58504;48.770;9.148;2023-05-29T09:53:15;2.72;;;2.53;;
62588;SDS011;58504;48.770;9.148;2023-05-29T09:55:44;2.90;;;2.58;;
62588;SDS011;58504;48.770;9.148;2023-05-29T09:58:11;2.20;;;2.10;;
62588;SDS011;58504;48.770;9.148;2023-05-29T10:00:40;3.13;;;2.60;;
62588;SDS011;58504;48.770;9.148;2023-05-29T10:03:09;6.07;;;2.55;;
62588;SDS011;58504;48.770;9.148;2023-05-29T10:05:37;4.57;;;2.60;;
62588;SDS011;58504;48.770;9.148;2023-05-29T10:08:04;2.60;;;2.30;;
62588;SDS011;58504;48.770;9.148;2023-05-29T10:10:34;5.63;;;2.40;;
62588;SDS011;58504;48.770;9.148;2023-05-29T10:13:02;2.58;;;2.38;;
62588;SDS011;58504;48.770;9.148;2023-05-29T10:15:31;2.83;;;2.63;;
62588;SDS011;58504;48.770;9.148;2023-05-29T10:18:02;5.07;;;2.70;;
62588;SDS011;58504;48.770;9.148;2023-05-29T10:20:33;4.15;;;2.60;;
62588;SDS011;58504;48.770;9.148;2023-05-29T10:23:01;4.97;;;2.88;;
62588;SDS011;58504;48.770;9.148;2023-05-29T10:25:29;3.35;;;3.08;;
62588;SDS011;58504;48.770;9.148;2023-05-29T10:27:58;2.80;;;2.60;;
62588;SDS011;58504;48.770;9.148;2023-05-29T10:30:27;3.35;;;2.72;;
62588;SDS011;58504;48.770;9.148;2023-05-29T10:36:04;2.58;;;2.35;;
62588;SDS011;58504;48.770;9.148;2023-05-29T10:38:36;2.60;;;2.40;;
62588;SDS011;58504;48.770;9.148;2023-05-29T10:44:04;5.65;;;2.47;;
62588;SDS011;58504;48.770;9.148;2023-05-29T10:47:12;2.67;;;2.47;;
62588;SDS011;58504;48.770;9.148;2023-05-29T10:49:52;3.33;;;3.05;;
62588;SDS011;58504;48.770;9.148;2023-05-29T10:52:25;5.18;;;3.17;;
62588;SDS011;58504;48.770;9.148;2023-05-29T10:54:53;3.22;;;2.83;;
62588;SDS011;58504;48.770;9.148;2023-05-29T10:57:22;4.72;;;3.28;;
62588;SDS011;58504;48.770;9.148;2023-05-29T10:59:57;4.28;;;2.95;;
62588;SDS011;58504;48.770;9.148;2023-05-29T11:02:37;4.50;;;2.75;;
62588;SDS011;58504;48.770;9.148;2023-05-29T11:05:11;2.78;;;2.58;;
62588;SDS011;58504;48.770;9.148;2023-05-29T11:07:52;4.03;;;2.65;;
62588;SDS011;58504;48.770;9.148;2023-05-29T11:10:40;2.80;;;2.60;;
62588;SDS011;58504;48.770;9.148;2023-05-29T11:13:08;2.50;;;2.30;;
62588;SDS011;58504;48.770;9.148;2023-05-29T11:15:36;2.90;;;2.70;;
62588;SDS011;58504;48.770;9.148;2023-05-29T11:18:06;3.88;;;2.80;;
62588;SDS011;58504;48.770;9.148;2023-05-29T11:20:41;3.00;;;2.60;;
62588;SDS011;58504;48.770;9.148;2023-05-29T11:23:15;3.33;;;2.22;;
62588;SDS011;58504;48.770;9.148;2023-05-29T11:25:44;4.03;;;2.67;;
62588;SDS011;58504;48.770;9.148;2023-05-29T11:28:13;3.47;;;3.08;;
62588;SDS011;58504;48.770;9.148;2023-05-29T11:30:41;5.45;;;2.70;;
62588;SDS011;58504;48.770;9.148;2023-05-29T11:33:10;2.50;;;2.30;;
62588;SDS011;58504;48.770;9.148;2023-05-29T11:36:01;3.20;;;2.40;;
62588;SDS011;58504;48.770;9.148;2023-05-29T11:38:28;3.47;;;2.30;;
62588;SDS011;58504;48.770;9.148;2023-05-29T11:40:55;2.92;;;2.72;;
62588;SDS011;58504;48.770;9.148;2023-05-29T11:43:23;3.40;;;2.65;;
62588;SDS011;58504;48.770;9.148;2023-05-29T11:45:51;3.30;;;2.80;;
62588;SDS011;58504;48.770;9.148;2023-05-29T11:48:18;3.15;;;2.63;;
62588;SDS011;58504;48.770;9.148;2023-05-29T11:50:45;4.28;;;2.47;;
62588;SDS011;58504;48.770;9.148;2023-05-29T11:53:13;2.50;;;2.30;;
62588;SDS011;58504;48.770;9.148;2023-05-29T11:55:40;2.95;;;2.42;;
62588;SDS011;58504;48.770;9.148;2023-05-29T11:58:06;2.83;;;2.55;;
62588;SDS011;58504;48.770;9.148;2023-05-29T12:00:34;2.50;;;2.30;;
62588;SDS011;58504;48.770;9.148;2023-05-29T12:03:02;2.45;;;2.25;;
62588;SDS011;58504;48.770;9.148;2023-05-29T12:05:30;2.80;;;2.35;;
62588;SDS011;58504;48.770;9.148;2023-05-29T12:07:57;2.42;;;2.20;;
62588;SDS011;58504;48.770;9.148;2023-05-29T12:10:27;2.60;;;2.40;;
62588;SDS011;58504;48.770;9.148;2023-05-29T12:12:55;3.83;;;2.65;;
62588;SDS011;58504;48.770;9.148;2023-05-29T12:15:25;3.65;;;2.70;;
62588;SDS011;58504;48.770;9.148;2023-05-29T12:17:53;5.72;;;2.40;;
62588;SDS011;58504;48.770;9.148;2023-05-29T12:20:22;2.55;;;2.35;;
62588;SDS011;58504;48.770;9.148;2023-05-29T12:22:51;3.33;;;2.40;;
62588;SDS011;58504;48.770;9.148;2023-05-29T12:25:19;4.90;;;2.50;;
62588;SDS011;58504;48.770;9.148;2023-05-29T12:27:48;3.15;;;2.92;;
62588;SDS011;58504;48.770;9.148;2023-05-29T12:30:20;2.40;;;2.20;;
62588;SDS011;58504;48.770;9.148;2023-05-29T12:32:48;2.95;;;2.45;;
62588;SDS011;58504;48.770;9.148;2023-05-29T12:35:18;2.95;;;2.70;;
62588;SDS011;58504;48.770;9.148;2023-05-29T12:37:46;2.38;;;2.17;;
62588;SDS011;58504;48.770;9.148;2023-05-29T12:40:15;2.60;;;2.40;;
62588;SDS011;58504;48.770;9.148;2023-05-29T12:42:46;2.80;;;2.10;;
62588;SDS011;58504;48.770;9.148;2023-05-29T12:45:14;2.40;;;2.20;;
62588;SDS011;58504;48.770;9.148;2023-05-29T12:47:50;2.38;;;2.17;;
62588;SDS011;58504;48.770;9.148;2023-05-29T12:50:22;2.45;;;2.25;;
62588;SDS011;58504;48.770;9.148;2023-05-29T12:52:53;3.10;;;2.53;;
62588;SDS011;58504;48.770;9.148;2023-05-29T12:55:21;2.65;;;2.22;;
62588;SDS011;58504;48.770;9.148;2023-05-29T12:57:49;2.60;;;2.40;;
62588;SDS011;58504;48.770;9.148;2023-05-29T13:00:17;2.53;;;2.33;;
62588;SDS011;58504;48.770;9.148;2023-05-29T13:02:45;3.13;;;1.95;;
62588;SDS011;58504;48.770;9.148;2023-05-29T13:05:12;2.70;;;2.35;;
62588;SDS011;58504;48.770;9.148;2023-05-29T13:07:38;1.88;;;1.77;;
62588;SDS011;58504;48.770;9.148;2023-05-29T13:10:06;3.53;;;2.50;;
62588;SDS011;58504;48.770;9.148;2023-05-29T13:12:33;3.15;;;2.47;;
62588;SDS011;58504;48.770;9.148;2023-05-29T13:15:02;2.28;;;2.08;;
62588;SDS011;58504;48.770;9.148;2023-05-29T13:17:29;2.22;;;2.13;;
62588;SDS011;58504;48.770;9.148;2023-05-29T13:19:55;1.98;;;1.80;;
62588;SDS011;58504;48.770;9.148;2023-05-29T13:22:22;2.70;;;2.05;;
62588;SDS011;58504;48.770;9.148;2023-05-29T13:24:55;2.17;;;2.08;;
62588;SDS011;58504;48.770;9.148;2023-05-29T13:27:22;2.65;;;2.22;;
62588;SDS011;58504;48.770;9.148;2023-05-29T13:29:49;2.47;;;2.28;;
62588;SDS011;58504;48.770;9.148;2023-05-29T13:32:17;2.67;;;2.47;;
62588;SDS011;58504;48.770;9.148;2023-05-29T13:34:44;2.00;;;1.90;;
62588;SDS011;58504;48.770;9.148;2023-05-29T13:37:11;2.97;;;2.53;;
62588;SDS011;58504;48.770;9.148;2023-05-29T13:39:37;2.45;;;2.25;;
62588;SDS011;58504;48.770;9.148;2023-05-29T13:42:04;2.13;;;2.00;;
62588;SDS011;58504;48.770;9.148;2023-05-29T13:44:32;2.47;;;2.10;;
62588;SDS011;58504;48.770;9.148;2023-05-29T13:46:59;2.45;;;2.25;;
62588;SDS011;58504;48.770;9.148;2023-05-29T13:49:27;2.70;;;2.20;;
62588;SDS011;58504;48.770;9.148;2023-05-29T13:51:54;3.13;;;2.25;;
62588;SDS011;58504;48.770;9.148;2023-05-29T13:54:21;1.88;;;1.70;;
62588;SDS011;58504;48.770;9.148;2023-05-29T13:56:48;2.42;;;2.28;;
62588;SDS011;58504;48.770;9.148;2023-05-29T13:59:14;2.15;;;2.03;;
62588;SDS011;58504;48.770;9.148;2023-05-29T14:01:41;2.35;;;2.10;;
62588;SDS011;58504;48.770;9.148;2023-05-29T14:04:08;1.98;;;1.88;;
62588;SDS011;58504;48.770;9.148;2023-05-29T14:06:36;2.05;;;1.95;;
62588;SDS011;58504;48.770;9.148;2023-05-29T14:09:03;2.47;;;2.22;;
62588;SDS011;58504;48.770;9.148;2023-05-29T14:11:30;2.22;;;2.03;;
62588;SDS011;58504;48.770;9.148;2023-05-29T14:14:00;2.40;;;2.20;;
62588;SDS011;58504;48.770;9.148;2023-05-29T14:16:27;3.42;;;2.22;;
62588;SDS011;58504;48.770;9.148;2023-05-29T14:21:19;2.08;;;1.65;;
62588;SDS011;58504;48.770;9.148;2023-05-29T14:23:47;2.00;;;1.90;;
62588;SDS011;58504;48.770;9.148;2023-05-29T14:26:14;2.05;;;1.95;;
62588;SDS011;58504;48.770;9.148;2023-05-29T14:28:41;2.45;;;2.08;;
62588;SDS011;58504;48.770;9.148;2023-05-29T14:31:07;1.80;;;1.70;;
62588;SDS011;58504;48.770;9.148;2023-05-29T14:33:34;2.42;;;1.95;;
62588;SDS011;58504;48.770;9.148;2023-05-29T14:36:01;2.95;;;2.67;;
62588;SDS011;58504;48.770;9.148;2023-05-29T14:38:28;2.95;;;2.45;;
62588;SDS011;58504;48.770;9.148;2023-05-29T14:40:57;2.60;;;2.40;;
62588;SDS011;58504;48.770;9.148;2023-05-29T14:43:23;3.15;;;1.98;;
62588;SDS011;58504;48.770;9.148;2023-05-29T14:45:50;1.98;;;1.88;;
62588;SDS011;58504;48.770;9.148;2023-05-29T14:48:17;2.45;;;1.98;;
62588;SDS011;58504;48.770;9.148;2023-05-29T14:50:44;2.25;;;2.05;;
62588;SDS011;58504;48.770;9.148;2023-05-29T14:53:10;1.92;;;1.83;;
62588;SDS011;58504;48.770;9.148;2023-05-29T14:55:37;2.38;;;2.17;;
62588;SDS011;58504;48.770;9.148;2023-05-29T14:58:05;1.77;;;1.67;;
62588;SDS011;58504;48.770;9.148;2023-05-29T15:00:32;2.00;;;1.90;;
62588;SDS011;58504;48.770;9.148;2023-05-29T15:02:59;1.85;;;1.75;;
62588;SDS011;58504;48.770;9.148;2023-05-29T15:05:27;1.85;;;1.75;;